Time;durP1;ratioP1;P1;durP2;ratioP2;P2;SDS_P1;SDS_P2;PMS_P1;PMS_P2;Temp;Humidity;BMP_temperature;BMP_pressure;BME280_temperature;BME280_humidity;BME280_pressure;Samples;Min_cycle;Max_cycle;Signal;HPM_P1;HPM_P2
2022/05/09 00:00:51;;;;;;;16.67;4.43;;;;;;;3.40;93.07;102881.78;2070322;28;42478;-65
2022/05/09 00:01:53;;;;;;;21.08;4.60;;;;;;;3.41;92.62;102879.19;2064058;28;44290;-66
2022/05/09 00:02:56;;;;;;;16.05;5.03;;;;;;;3.43;93.13;102877.50;2070167;28;44795;-66
2022/05/09 00:03:58;;;;;;;18.08;4.93;;;;;;;3.41;93.06;102881.81;2069646;28;45546;-65
2022/05/09 00:04:59;;;;;;;13.00;4.13;;;;;;;3.40;92.73;102879.13;2070662;28;44091;-65
2022/05/09 00:06:01;;;;;;;13.80;4.32;;;;;;;3.37;92.86;102881.63;2070565;28;43209;-65
2022/05/09 00:07:07;;;;;;;16.50;4.13;;;;;;;3.36;92.86;102882.50;2071168;28;20086;-65
2022/05/09 00:08:11;;;;;;;19.75;5.45;;;;;;;3.31;92.75;102874.38;2070198;28;20096;-66
2022/05/09 00:09:14;;;;;;;16.67;4.53;;;;;;;3.30;92.63;102875.19;2071700;28;43534;-65
2022/05/09 00:10:22;;;;;;;11.52;4.35;;;;;;;3.27;92.27;102885.69;2071628;28;45572;-65
2022/05/09 00:11:23;;;;;;;13.85;4.80;;;;;;;3.22;92.67;102880.22;2071597;28;44254;-65
2022/05/09 00:12:25;;;;;;;11.30;4.00;;;;;;;3.20;92.38;102881.00;2063904;28;45305;-65
2022/05/09 00:13:27;;;;;;;12.95;4.70;;;;;;;3.19;92.93;102873.91;2070877;28;43920;-64
2022/05/09 00:14:29;;;;;;;12.23;4.97;;;;;;;3.20;93.33;102870.41;2071914;28;43314;-66
2022/05/09 00:15:31;;;;;;;15.07;5.45;;;;;;;3.20;93.19;102873.06;2071292;28;46251;-65
2022/05/09 00:16:36;;;;;;;20.67;6.65;;;;;;;3.19;93.12;102873.91;2071462;28;44656;-65
2022/05/09 00:17:38;;;;;;;14.57;5.15;;;;;;;3.17;93.15;102876.47;2071951;28;45623;-65
2022/05/09 00:18:40;;;;;;;17.02;5.45;;;;;;;3.16;92.57;102877.34;2080252;28;20120;-65
2022/05/09 00:19:42;;;;;;;14.30;4.90;;;;;;;3.19;93.08;102887.13;2078995;28;43390;-65
2022/05/09 00:20:44;;;;;;;19.40;6.18;;;;;;;3.17;92.88;102873.84;2072230;28;35937;-65
2022/05/09 00:21:46;;;;;;;13.55;5.18;;;;;;;3.15;92.73;102878.16;2072087;28;45701;-66
2022/05/09 00:22:54;;;;;;;13.93;5.43;;;;;;;3.11;92.25;102875.38;2071797;28;44205;-65
2022/05/09 00:23:57;;;;;;;19.35;5.72;;;;;;;3.09;92.99;102879.66;2071922;28;45128;-65
2022/05/09 00:25:01;;;;;;;14.40;5.75;;;;;;;3.04;92.59;102875.09;2071888;28;42350;-65
2022/05/09 00:26:03;;;;;;;15.98;5.10;;;;;;;3.03;93.07;102875.97;2072380;28;37257;-65
2022/05/09 00:27:05;;;;;;;17.27;5.68;;;;;;;3.02;92.72;102871.50;2072282;28;20050;-65
2022/05/09 00:28:07;;;;;;;13.60;6.32;;;;;;;3.01;92.79;102876.72;2071645;28;42761;-64
2022/05/09 00:29:11;;;;;;;19.58;5.65;;;;;;;3.00;92.71;102867.00;2071799;28;37821;-65
2022/05/09 00:30:16;;;;;;;12.77;5.30;;;;;;;3.00;92.78;102872.28;2072393;28;42354;-66
2022/05/09 00:31:20;;;;;;;22.38;6.88;;;;;;;3.01;93.71;102868.78;2072314;28;45265;-65
2022/05/09 00:32:24;;;;;;;18.70;5.68;;;;;;;3.00;93.40;102872.28;2070775;28;45078;-66
2022/05/09 00:33:26;;;;;;;13.85;5.35;;;;;;;3.01;93.79;102872.31;2071390;28;41969;-65
2022/05/09 00:34:28;;;;;;;16.67;5.53;;;;;;;3.00;93.47;102873.19;2072193;28;45332;-65
2022/05/09 00:35:30;;;;;;;12.32;5.70;;;;;;;2.99;93.13;102875.78;2071836;28;46171;-65
2022/05/09 00:36:32;;;;;;;12.70;5.35;;;;;;;2.98;93.09;102868.66;2071754;28;45165;-64
2022/05/09 00:37:36;;;;;;;16.33;6.90;;;;;;;2.98;93.43;102872.22;2072264;28;20104;-66
2022/05/09 00:38:38;;;;;;;18.42;5.95;;;;;;;3.00;93.70;102873.19;2072042;28;43036;-65
2022/05/09 00:39:39;;;;;;;20.23;6.03;;;;;;;2.99;94.00;102863.44;2079113;28;42927;-65
2022/05/09 00:41:28;;;;;;;17.27;6.95;;;;;;;3.01;93.33;102869.69;2079297;28;45754;-65
2022/05/09 00:42:12;;;;;;;14.88;5.88;;;;;;;3.01;94.06;102861.75;2073042;28;20144;-66
2022/05/09 00:43:36;;;;;;;15.82;6.57;;;;;;;3.00;94.09;102859.97;2071302;28;46397;-65
2022/05/09 00:44:40;;;;;;;22.17;7.90;;;;;;;3.03;94.05;102856.50;2073029;28;20031;-66
2022/05/09 00:45:41;;;;;;;22.00;8.13;;;;;;;3.03;93.80;102865.38;2079608;28;29637;-66
2022/05/09 00:46:51;;;;;;;18.35;6.68;;;;;;;3.03;94.47;102862.72;2079182;28;46041;-65
2022/05/09 00:47:52;;;;;;;15.20;5.90;;;;;;;2.99;93.53;102863.44;2078940;28;45353;-66
2022/05/09 00:49:19;;;;;;;19.50;6.55;;;;;;;2.97;93.90;102866.88;2078961;28;46163;-65
2022/05/09 00:50:31;;;;;;;14.80;7.32;;;;;;;2.92;93.61;102861.38;2079132;28;44331;-65
2022/05/09 00:51:35;;;;;;;19.65;7.68;;;;;;;2.91;94.08;102862.25;2070801;28;44064;-64
2022/05/09 00:53:07;;;;;;;18.40;7.22;;;;;;;2.89;94.41;102863.94;2070947;28;44599;-65
2022/05/09 00:54:09;;;;;;;20.55;8.40;;;;;;;2.90;94.15;102863.06;2054940;28;42581;-66
2022/05/09 00:55:28;;;;;;;20.25;7.72;;;;;;;2.88;94.47;102862.13;2079304;28;46386;-65
2022/05/09 00:56:45;;;;;;;20.75;8.52;;;;;;;2.90;94.40;102867.47;2077320;28;43446;-65
2022/05/09 00:58:07;;;;;;;18.77;8.13;;;;;;;2.89;94.32;102857.72;2070702;28;44215;-64
2022/05/09 00:59:15;;;;;;;21.77;8.23;;;;;;;2.89;94.81;102863.94;2058731;28;20046;-65
2022/05/09 01:00:19;;;;;;;30.50;8.25;;;;;;;2.88;94.66;102854.19;2067115;28;43481;-65
2022/05/09 01:01:21;;;;;;;18.55;8.40;;;;;;;2.87;94.69;102860.28;2077767;28;45517;-66
2022/05/09 01:02:24;;;;;;;18.73;7.40;;;;;;;2.88;94.85;102853.28;2071085;28;44521;-65
2022/05/09 01:03:43;;;;;;;23.90;7.68;;;;;;;2.86;94.66;102855.88;2071918;28;44124;-65
2022/05/09 01:04:55;;;;;;;20.88;7.82;;;;;;;2.88;94.91;102859.47;2072333;28;20926;-66
2022/05/09 01:05:56;;;;;;;17.10;7.72;;;;;;;2.85;94.60;102857.63;2078876;28;43410;-65
2022/05/09 01:06:58;;;;;;;17.00;8.23;;;;;;;2.85;94.48;102859.34;2077971;28;45410;-65
2022/05/09 01:08:00;;;;;;;20.38;7.80;;;;;;;2.84;95.14;102855.78;2071871;28;45735;-64
2022/05/09 01:09:04;;;;;;;18.92;7.93;;;;;;;2.80;94.17;102858.25;2071226;28;43780;-66
2022/05/09 01:10:10;;;;;;;19.90;8.15;;;;;;;2.78;94.09;102858.22;2071288;28;46502;-65
2022/05/09 01:11:20;;;;;;;21.98;8.45;;;;;;;2.79;94.38;102859.09;2078660;28;42119;-65
2022/05/09 01:12:33;;;;;;;22.45;8.40;;;;;;;2.79;95.13;102860.00;2077268;28;43928;-65
2022/05/09 01:13:43;;;;;;;19.05;8.48;;;;;;;2.80;94.97;102864.47;2071491;28;44216;-65
2022/05/09 01:14:49;;;;;;;23.42;9.05;;;;;;;2.81;94.76;102863.59;2079836;28;20046;-66
2022/05/09 01:15:54;;;;;;;19.67;7.70;;;;;;;2.82;95.28;102862.78;2077440;28;46162;-65
2022/05/09 01:17:02;;;;;;;30.50;9.10;;;;;;;2.82;95.01;102864.53;2079279;28;42335;-65
2022/05/09 01:18:07;;;;;;;17.05;7.18;;;;;;;2.82;94.45;102862.78;2071137;28;45794;-65
2022/05/09 01:19:41;;;;;;;17.10;8.02;;;;;;;2.80;94.54;102860.91;2064442;28;20173;-65
2022/05/09 01:20:43;;;;;;;15.45;7.22;;;;;;;2.78;94.75;102863.50;2067988;28;45103;-65
2022/05/09 01:21:45;;;;;;;15.10;7.18;;;;;;;2.75;94.82;102863.38;2071182;28;35725;-65
2022/05/09 01:22:47;;;;;;;14.23;7.00;;;;;;;2.72;94.54;102854.41;2071818;28;44313;-66
2022/05/09 01:23:48;;;;;;;19.35;7.68;;;;;;;2.67;94.49;102855.13;2071458;28;43920;-65
2022/05/09 01:24:54;;;;;;;18.63;8.20;;;;;;;2.64;94.74;102864.69;2071441;28;20046;-66
2022/05/09 01:25:57;;;;;;;15.23;7.15;;;;;;;2.61;94.85;102860.16;2071173;28;42377;-65
2022/05/09 01:26:58;;;;;;;13.43;6.50;;;;;;;2.61;94.16;102860.16;2071763;28;45314;-65
2022/05/09 01:28:03;;;;;;;16.63;8.20;;;;;;;2.58;94.76;102852.09;2072229;28;20046;-65
2022/05/09 01:29:37;;;;;;;22.30;9.18;;;;;;;2.59;95.33;102856.56;2071659;28;45233;-65
2022/05/09 01:30:55;;;;;;;22.67;7.80;;;;;;;2.58;95.47;102856.50;2078897;28;46148;-65
2022/05/09 01:31:58;;;;;;;15.27;6.30;;;;;;;2.58;95.49;102857.38;2070736;28;42154;-65
2022/05/09 01:33:09;;;;;;;14.85;6.57;;;;;;;2.59;94.83;102845.97;2064857;28;41102;-66
2022/05/09 01:34:13;;;;;;;14.13;6.40;;;;;;;2.56;95.60;102851.13;2071616;28;20811;-65
2022/05/09 01:35:30;;;;;;;20.33;8.70;;;;;;;2.53;94.72;102850.09;2070776;28;45514;-65
2022/05/09 01:36:35;;;;;;;15.65;6.53;;;;;;;2.51;95.11;102850.03;2071424;28;46437;-65
2022/05/09 01:37:39;;;;;;;15.68;6.85;;;;;;;2.48;95.09;102852.56;2079031;28;40986;-65
2022/05/09 01:39:03;;;;;;;19.70;6.38;;;;;;;2.44;94.91;102856.84;2070719;28;44001;-65
2022/05/09 01:40:06;;;;;;;17.25;7.85;;;;;;;2.41;94.54;102843.47;2070948;28;44436;-65
2022/05/09 01:41:08;;;;;;;22.05;7.80;;;;;;;2.42;94.89;102852.31;2078428;28;39297;-65
2022/05/09 01:42:10;;;;;;;18.25;7.90;;;;;;;2.42;95.48;102849.66;2078508;28;43894;-65
2022/05/09 01:43:12;;;;;;;18.30;6.65;;;;;;;2.42;95.13;102852.31;2079097;28;34227;-65
2022/05/09 01:44:17;;;;;;;17.67;8.15;;;;;;;2.42;94.91;102849.66;2071325;28;36611;-65
2022/05/09 01:45:19;;;;;;;16.92;7.35;;;;;;;2.40;95.52;102844.31;2070730;28;44007;-64
2022/05/09 01:46:27;;;;;;;22.17;7.60;;;;;;;2.39;95.41;102842.53;2071370;28;43899;-65
2022/05/09 01:49:51;;;;;;;18.02;7.07;;;;;;;2.37;95.05;102848.56;2046199;28;45652;-65
2022/05/09 01:50:33;;;;;;;16.80;7.53;;;;;;;2.37;95.24;102844.19;2043375;28;45379;-65
2022/05/09 01:51:38;;;;;;;17.85;7.30;;;;;;;2.39;95.15;102849.56;2045878;28;46341;-66
2022/05/09 01:52:39;;;;;;;16.77;6.95;;;;;;;2.38;96.11;102855.66;2046257;28;34032;-66
2022/05/09 01:53:45;;;;;;;17.23;6.80;;;;;;;2.39;94.76;102852.19;2045641;28;45240;-65
2022/05/09 01:54:47;;;;;;;16.65;6.95;;;;;;;2.36;95.10;102847.66;2059923;28;45680;-65
2022/05/09 01:55:48;;;;;;;16.67;6.35;;;;;;;2.32;95.01;102852.78;2078511;28;44120;-65
2022/05/09 01:56:51;;;;;;;15.35;7.13;;;;;;;2.27;95.18;102845.53;2071450;28;20085;-65
2022/05/09 01:57:54;;;;;;;13.20;6.35;;;;;;;2.27;94.82;102852.56;2077772;28;43544;-65
2022/05/09 01:58:57;;;;;;;17.35;7.20;;;;;;;2.27;95.07;102849.94;2078237;28;33320;-65
2022/05/09 01:59:59;;;;;;;17.08;7.45;;;;;;;2.24;95.42;102848.06;2071269;28;43669;-65
2022/05/09 02:01:03;;;;;;;18.17;7.57;;;;;;;2.22;94.73;102849.72;2070969;28;44361;-65
2022/05/09 02:02:16;;;;;;;18.42;7.68;;;;;;;2.24;95.77;102856.00;2071360;28;46359;-65
2022/05/09 02:03:22;;;;;;;17.92;8.43;;;;;;;2.22;95.58;102846.19;2072080;28;20185;-65
2022/05/09 02:04:24;;;;;;;21.52;7.75;;;;;;;2.24;95.76;102845.44;2071694;28;34365;-65
2022/05/09 02:05:26;;;;;;;20.25;8.18;;;;;;;2.27;95.68;102855.22;2078434;28;44622;-65
2022/05/09 02:06:28;;;;;;;18.45;8.07;;;;;;;2.28;95.85;102857.94;2070287;28;45613;-65
2022/05/09 02:07:31;;;;;;;19.33;8.57;;;;;;;2.31;96.13;102848.31;2071257;28;20034;-65
2022/05/09 02:08:33;;;;;;;20.05;8.48;;;;;;;2.32;95.59;102852.78;2071154;28;42079;-64
2022/05/09 02:09:39;;;;;;;18.58;7.78;;;;;;;2.34;96.36;102851.09;2070991;28;40587;-65
2022/05/09 02:10:42;;;;;;;16.60;7.07;;;;;;;2.34;96.29;102848.47;2071169;28;44202;-65
2022/05/09 02:11:44;;;;;;;14.35;7.82;;;;;;;2.30;95.50;102847.44;2070494;28;41154;-65
2022/05/09 02:12:45;;;;;;;13.93;7.07;;;;;;;2.28;96.13;102850.00;2062752;28;42859;-65
2022/05/09 02:13:47;;;;;;;22.00;8.98;;;;;;;2.37;95.39;102843.28;2070456;28;44598;-65
2022/05/09 02:14:49;;;;;;;24.35;9.52;;;;;;;2.39;96.00;102849.56;2079118;28;44147;-65
2022/05/09 02:15:50;;;;;;;28.20;9.27;;;;;;;2.41;96.65;102845.22;2078601;28;45946;-65
2022/05/09 02:16:54;;;;;;;17.00;7.30;;;;;;;2.39;96.43;102850.44;2071597;28;20049;-65
2022/05/09 02:17:56;;;;;;;16.98;7.13;;;;;;;2.36;96.16;102846.78;2070630;28;45821;-65
2022/05/09 02:18:57;;;;;;;12.85;6.20;;;;;;;2.33;96.42;102855.47;2070892;28;46061;-66
2022/05/09 02:19:59;;;;;;;19.67;7.43;;;;;;;2.27;95.23;102847.28;2071217;28;44271;-65
2022/05/09 02:21:03;;;;;;;16.42;7.47;;;;;;;2.23;95.49;102848.00;2070235;28;46473;-65
2022/05/09 02:22:05;;;;;;;17.98;7.50;;;;;;;2.20;95.66;102851.41;2071164;28;42119;-65
2022/05/09 02:23:08;;;;;;;18.98;7.75;;;;;;;2.20;95.28;102854.03;2072265;28;20031;-65
2022/05/09 02:24:10;;;;;;;20.58;7.30;;;;;;;2.19;96.28;102853.97;2071410;28;44639;-65
2022/05/09 02:25:33;;;;;;;17.70;8.20;;;;;;;2.19;95.72;102854.91;2078504;28;44957;-67
2022/05/09 02:26:33;;;;;;;14.00;6.53;;;;;;;2.20;96.23;102851.41;2075728;28;46606;-66
2022/05/09 02:27:35;;;;;;;17.60;6.55;;;;;;;2.19;96.26;102846.97;2071282;28;43277;-65
2022/05/09 02:28:37;;;;;;;20.80;7.93;;;;;;;2.15;96.49;102845.03;2070448;28;44288;-65
2022/05/09 02:29:40;;;;;;;18.98;8.40;;;;;;;2.15;95.44;102846.78;2071047;28;44278;-65
2022/05/09 02:30:42;;;;;;;20.52;7.80;;;;;;;2.15;96.70;102855.59;2078422;28;43671;-64
2022/05/09 02:31:44;;;;;;;16.88;7.88;;;;;;;2.14;96.80;102848.53;2078040;28;45306;-65
2022/05/09 02:32:46;;;;;;;14.13;7.32;;;;;;;2.14;95.77;102848.53;2071373;28;46137;-65
2022/05/09 02:33:48;;;;;;;19.17;7.50;;;;;;;2.10;95.85;102847.47;2078927;28;45345;-65
2022/05/09 02:34:50;;;;;;;23.15;8.00;;;;;;;2.11;96.26;102843.09;2070679;28;46283;-65
2022/05/09 02:35:51;;;;;;;17.80;7.10;;;;;;;2.13;96.13;102849.34;2070310;28;42419;-65
2022/05/09 02:36:56;;;;;;;23.95;8.55;;;;;;;2.13;96.71;102851.09;2072278;28;20045;-65
2022/05/09 02:37:57;;;;;;;15.20;8.05;;;;;;;2.13;96.30;102838.78;2070981;28;40215;-65
2022/05/09 02:38:59;;;;;;;14.93;6.38;;;;;;;2.13;96.84;102849.34;2071320;28;43736;-65
2022/05/09 02:40:01;;;;;;;21.48;6.72;;;;;;;2.08;96.07;102842.94;2070994;28;46569;-65
2022/05/09 02:41:03;;;;;;;15.65;6.78;;;;;;;2.06;95.93;102839.34;2071218;28;44552;-65
2022/05/09 02:42:05;;;;;;;16.73;7.63;;;;;;;2.04;96.22;102841.91;2070671;28;44058;-65
2022/05/09 02:43:10;;;;;;;16.77;6.90;;;;;;;2.03;96.19;102837.50;2069965;28;45810;-65
2022/05/09 02:44:12;;;;;;;17.30;7.25;;;;;;;2.00;96.72;102837.34;2070258;28;45309;-65
2022/05/09 02:45:14;;;;;;;12.20;6.03;;;;;;;1.99;95.46;102832.94;2071144;28;46348;-66
2022/05/09 02:46:16;;;;;;;18.85;7.43;;;;;;;1.94;96.40;102837.09;2070914;28;43961;-64
2022/05/09 02:47:20;;;;;;;19.90;6.75;;;;;;;1.93;96.26;102835.28;2079530;28;20044;-65
2022/05/09 02:48:22;;;;;;;14.70;5.93;;;;;;;1.91;95.61;102837.84;2064653;28;44774;-65
2022/05/09 02:49:24;;;;;;;15.98;6.95;;;;;;;1.91;96.37;102836.97;2062232;28;37335;-64
2022/05/09 02:50:27;;;;;;;13.05;5.97;;;;;;;1.89;96.23;102826.31;2062727;28;46355;-64
2022/05/09 02:51:29;;;;;;;14.55;7.10;;;;;;;1.88;96.56;102837.75;2070257;28;41972;-64
2022/05/09 02:52:31;;;;;;;15.65;6.28;;;;;;;1.89;96.35;102826.31;2070652;28;20128;-64
2022/05/09 02:53:35;;;;;;;14.25;6.95;;;;;;;1.88;96.52;102836.81;2061826;28;46073;-64
2022/05/09 02:54:37;;;;;;;17.70;7.18;;;;;;;1.87;96.31;102838.56;2070318;28;43603;-65
2022/05/09 02:55:39;;;;;;;17.23;7.10;;;;;;;1.89;96.55;102831.59;2061714;28;45444;-64
2022/05/09 02:56:41;;;;;;;15.02;6.22;;;;;;;1.90;95.99;102833.44;2062950;28;31688;-65
2022/05/09 02:57:42;;;;;;;19.65;7.80;;;;;;;1.86;96.31;102828.81;2070286;28;43757;-64
2022/05/09 02:58:44;;;;;;;20.38;7.50;;;;;;;1.86;95.55;102834.09;2070265;28;45176;-65
2022/05/09 02:59:46;;;;;;;16.90;7.22;;;;;;;1.85;95.98;102829.69;2063056;28;43533;-64
2022/05/09 03:00:50;;;;;;;20.88;6.70;;;;;;;1.86;97.01;102838.50;2063975;28;20042;-63
2022/05/09 03:01:52;;;;;;;15.73;6.93;;;;;;;1.85;96.58;102831.44;2062740;28;44042;-64
2022/05/09 03:05:36;;;;;;;20.20;7.63;;;;;;;1.80;96.50;102839.13;2063041;28;42003;-65
2022/05/09 03:06:38;;;;;;;22.75;7.90;;;;;;;1.79;96.37;102829.38;2062197;28;45323;-66
2022/05/09 03:07:40;;;;;;;16.67;6.93;;;;;;;1.78;96.10;102832.88;2062219;28;46144;-65
2022/05/09 03:08:44;;;;;;;14.68;7.10;;;;;;;1.80;96.58;102832.97;2063241;28;44075;-66
2022/05/09 03:09:49;;;;;;;13.25;6.93;;;;;;;1.79;96.37;102836.41;2070032;28;44045;-64
2022/05/09 03:10:51;;;;;;;15.27;6.57;;;;;;;1.78;96.81;102840.81;2069664;28;43133;-64
2022/05/09 03:11:53;;;;;;;17.90;7.60;;;;;;;1.75;95.98;102831.84;2054101;28;36569;-64
2022/05/09 03:13:04;;;;;;;19.48;8.02;;;;;;;1.71;96.66;102828.19;2062460;28;45593;-64
2022/05/09 03:14:06;;;;;;;12.38;6.07;;;;;;;1.72;96.61;102829.97;2062604;28;44058;-64
2022/05/09 03:15:08;;;;;;;13.02;6.70;;;;;;;1.70;96.99;102829.00;2062709;28;45130;-64
2022/05/09 03:16:10;;;;;;;17.17;7.60;;;;;;;1.69;96.46;102832.50;2063140;28;43690;-64
2022/05/09 03:17:15;;;;;;;17.38;7.55;;;;;;;1.69;97.03;102827.22;2062978;28;43868;-64
2022/05/09 03:18:21;;;;;;;13.38;7.25;;;;;;;1.70;96.50;102826.34;2070357;28;46512;-64
2022/05/09 03:19:24;;;;;;;17.63;8.13;;;;;;;1.68;96.38;102830.66;2069254;28;29420;-64
2022/05/09 03:20:26;;;;;;;22.00;8.82;;;;;;;1.68;97.27;102825.38;2054991;28;45255;-65
2022/05/09 03:21:28;;;;;;;16.27;6.63;;;;;;;1.69;96.84;102829.84;2062512;28;44633;-65
2022/05/09 03:22:30;;;;;;;22.02;8.50;;;;;;;1.68;96.82;102830.66;2062770;28;43352;-64
2022/05/09 03:23:32;;;;;;;20.17;8.10;;;;;;;1.68;97.11;102828.91;2062937;28;46181;-66
2022/05/09 03:24:35;;;;;;;22.33;8.82;;;;;;;1.66;97.55;102819.16;2063821;28;20031;-65
2022/05/09 03:25:38;;;;;;;16.92;8.63;;;;;;;1.68;97.17;102831.56;2069870;28;45187;-65
2022/05/09 03:26:40;;;;;;;18.40;8.10;;;;;;;1.73;97.05;102833.53;2069558;28;45603;-65
2022/05/09 03:27:43;;;;;;;25.05;8.52;;;;;;;1.74;98.02;102836.22;2061923;28;45373;-65
2022/05/09 03:28:44;;;;;;;19.15;7.80;;;;;;;1.77;97.58;102825.78;2062395;28;46705;-65
2022/05/09 03:29:47;;;;;;;23.05;8.52;;;;;;;1.77;97.83;102825.78;2071424;28;20144;-65
2022/05/09 03:30:52;;;;;;;20.55;7.97;;;;;;;1.77;97.53;102833.72;2070763;28;45118;-64
2022/05/09 03:31:54;;;;;;;19.40;6.97;;;;;;;1.80;96.86;102831.22;2071312;28;43138;-65
2022/05/09 03:32:56;;;;;;;23.77;8.68;;;;;;;1.79;97.22;102824.09;2070653;28;45689;-65
2022/05/09 03:33:57;;;;;;;15.25;6.88;;;;;;;1.79;97.35;102813.53;2071515;28;36295;-65
2022/05/09 03:34:59;;;;;;;19.77;8.75;;;;;;;1.78;97.03;102813.50;2071149;28;42148;-64
2022/05/09 03:36:01;;;;;;;19.55;8.02;;;;;;;1.78;97.80;102814.41;2078447;28;45430;-64
2022/05/09 03:37:06;;;;;;;14.77;7.97;;;;;;;1.78;96.89;102824.06;2077286;28;44835;-65
2022/05/09 03:38:08;;;;;;;21.38;7.90;;;;;;;1.78;97.71;102809.13;2070862;28;45592;-65
2022/05/09 03:39:10;;;;;;;19.80;8.15;;;;;;;1.75;97.46;102814.25;2070370;28;36216;-65
2022/05/09 03:40:15;;;;;;;18.42;8.32;;;;;;;1.77;97.39;102806.41;2071403;28;20164;-65
2022/05/09 03:41:16;;;;;;;17.33;9.02;;;;;;;1.79;96.94;102808.25;2070737;28;42880;-64
2022/05/09 03:42:18;;;;;;;24.02;9.10;;;;;;;1.80;96.88;102807.44;2070866;28;46374;-66
2022/05/09 03:43:20;;;;;;;23.02;9.60;;;;;;;1.83;97.47;102812.88;2072118;28;42144;-64
2022/05/09 03:44:21;;;;;;;25.75;9.65;;;;;;;1.84;96.83;102809.38;2071892;28;36168;-65
2022/05/09 03:45:23;;;;;;;15.43;7.63;;;;;;;1.88;97.54;102806.06;2072268;28;44282;-64
2022/05/09 03:46:25;;;;;;;19.33;9.27;;;;;;;1.89;97.57;102802.56;2072328;28;45348;-64
2022/05/09 03:47:27;;;;;;;18.02;9.13;;;;;;;1.91;97.56;102806.16;2071567;28;46797;-64
2022/05/09 03:48:28;;;;;;;25.48;8.77;;;;;;;1.93;97.31;102800.06;2071441;28;43394;-65
2022/05/09 03:49:30;;;;;;;17.55;8.00;;;;;;;1.96;97.50;102802.84;2079744;28;42742;-64
2022/05/09 03:50:33;;;;;;;20.77;9.38;;;;;;;2.00;97.73;102802.13;2071867;28;38029;-64
2022/05/09 03:51:35;;;;;;;26.30;9.13;;;;;;;2.04;97.82;102799.66;2071291;28;44084;-65
2022/05/09 03:52:37;;;;;;;28.02;10.98;;;;;;;2.06;97.57;102797.06;2072195;28;44943;-64
2022/05/09 03:53:39;;;;;;;24.25;10.52;;;;;;;2.12;97.09;102805.28;2064627;28;42172;-64
2022/05/09 03:54:41;;;;;;;21.48;10.48;;;;;;;2.17;97.66;102795.81;2064471;28;20042;-64
2022/05/09 03:55:43;;;;;;;24.15;9.77;;;;;;;2.22;97.14;102793.34;2064625;28;20145;-64
2022/05/09 03:56:45;;;;;;;25.52;9.75;;;;;;;2.28;98.22;102790.97;2064330;28;45501;-65
2022/05/09 03:57:54;;;;;;;17.98;8.40;;;;;;;2.35;97.49;102793.03;2063596;28;44019;-66
2022/05/09 03:58:56;;;;;;;22.20;10.13;;;;;;;2.38;97.39;102786.94;2063811;28;42039;-65
2022/05/09 04:00:06;;;;;;;24.13;10.52;;;;;;;2.48;97.67;102794.41;2064006;28;44305;-64
2022/05/09 04:01:16;;;;;;;39.13;13.43;;;;;;;2.67;98.52;102790.75;2072310;28;20046;-66
2022/05/09 04:02:17;;;;;;;27.73;12.45;;;;;;;2.74;98.16;102783.97;2063450;28;42520;-65
2022/05/09 04:03:20;;;;;;;24.48;11.02;;;;;;;2.82;98.36;102786.06;2063160;28;45782;-64
2022/05/09 04:04:23;;;;;;;25.23;10.43;;;;;;;2.90;98.58;102783.69;2065018;28;20039;-64
2022/05/09 04:05:30;;;;;;;24.42;10.43;;;;;;;2.93;98.87;102793.53;2071617;28;42905;-64
2022/05/09 04:06:32;;;;;;;28.10;11.10;;;;;;;2.97;98.06;102787.50;2063392;28;45152;-65
2022/05/09 04:07:33;;;;;;;21.55;11.23;;;;;;;3.06;98.44;102783.44;2063179;28;43419;-65
2022/05/09 04:08:38;;;;;;;27.17;10.80;;;;;;;3.11;98.21;102782.72;2063830;28;44469;-65
2022/05/09 04:09:40;;;;;;;22.92;10.88;;;;;;;3.18;98.32;102779.47;2071284;28;44690;-64
2022/05/09 04:10:44;;;;;;;22.05;10.35;;;;;;;3.25;98.59;102776.22;2063424;28;43752;-64
2022/05/09 04:11:48;;;;;;;20.98;9.60;;;;;;;3.31;98.33;102789.66;2055464;28;46695;-65
2022/05/09 04:12:50;;;;;;;28.33;10.93;;;;;;;3.37;98.27;102781.91;2056301;28;42571;-64
2022/05/09 04:13:52;;;;;;;27.40;11.07;;;;;;;3.47;97.86;102782.28;2062808;28;34036;-65
2022/05/09 04:17:35;;;;;;;29.10;11.82;;;;;;;4.48;98.38;102780.41;2064073;28;45041;-64
2022/05/09 04:18:41;;;;;;;27.00;12.45;;;;;;;4.85;97.51;102773.59;2063840;28;43641;-65
2022/05/09 04:19:44;;;;;;;29.85;13.65;;;;;;;5.25;98.16;102777.41;2063880;28;45942;-65
2022/05/09 04:20:47;;;;;;;25.48;12.30;;;;;;;5.62;97.63;102765.16;2071320;28;45624;-65
2022/05/09 04:21:49;;;;;;;24.00;11.02;;;;;;;6.02;96.51;102768.00;2071186;28;45430;-65
2022/05/09 04:22:54;;;;;;;22.58;10.20;;;;;;;6.34;94.54;102774.13;2063832;28;46063;-64
2022/05/09 04:23:58;;;;;;;22.05;9.77;;;;;;;6.75;93.80;102774.19;2064504;28;41238;-65
2022/05/09 04:25:02;;;;;;;19.27;8.68;;;;;;;7.12;92.98;102759.00;2063736;28;45307;-64
2022/05/09 04:26:05;;;;;;;22.48;8.50;;;;;;;7.38;90.87;102762.19;2063067;28;45270;-65
2022/05/09 04:27:08;;;;;;;17.08;7.63;;;;;;;7.77;90.30;102757.56;2063812;28;44262;-65
2022/05/09 04:28:10;;;;;;;27.27;7.55;;;;;;;8.01;87.89;102767.78;2064036;28;45165;-64
2022/05/09 04:29:11;;;;;;;13.25;6.82;;;;;;;8.21;85.19;102760.09;2063069;28;44245;-63
2022/05/09 04:30:16;;;;;;;13.13;5.97;;;;;;;8.49;84.91;102768.56;2063646;28;44938;-63
2022/05/09 04:31:22;;;;;;;17.20;6.05;;;;;;;8.73;81.76;102757.38;2063995;28;33865;-64
2022/05/09 04:32:24;;;;;;;14.77;5.68;;;;;;;9.05;81.23;102762.25;2064043;28;20219;-66
2022/05/09 04:33:26;;;;;;;13.23;5.45;;;;;;;9.31;79.29;102751.84;2063057;28;45191;-64
2022/05/09 04:34:27;;;;;;;11.02;5.78;;;;;;;9.57;78.16;102759.28;2064017;28;45926;-65
2022/05/09 04:35:29;;;;;;;12.15;5.22;;;;;;;9.83;76.61;102756.84;2064123;28;45576;-66
2022/05/09 04:36:32;;;;;;;14.70;4.97;;;;;;;9.82;75.33;102757.75;2063539;28;45101;-66
2022/05/09 04:37:42;;;;;;;13.38;4.90;;;;;;;10.15;73.36;102754.47;2064835;28;20031;-63
2022/05/09 04:38:45;;;;;;;11.18;4.70;;;;;;;10.39;73.24;102751.13;2063415;28;43305;-66
2022/05/09 04:39:48;;;;;;;12.80;4.22;;;;;;;10.85;72.35;102753.16;2064067;28;44911;-65
2022/05/09 04:40:52;;;;;;;13.82;4.78;;;;;;;10.87;69.81;102751.38;2063649;28;45332;-65
2022/05/09 04:41:53;;;;;;;11.43;3.78;;;;;;;11.43;70.67;102742.69;2071096;28;46629;-65
2022/05/09 04:42:57;;;;;;;14.13;4.80;;;;;;;11.60;66.61;102749.88;2071320;28;36733;-66
2022/05/09 04:43:59;;;;;;;11.18;4.13;;;;;;;11.21;67.66;102741.69;2062085;28;44307;-66
2022/05/09 04:45:01;;;;;;;13.45;4.90;;;;;;;11.51;67.44;102748.06;2062905;28;45611;-66
2022/05/09 04:46:05;;;;;;;16.50;4.47;;;;;;;11.69;66.92;102741.81;2063424;28;44227;-66
2022/05/09 04:47:07;;;;;;;14.32;4.07;;;;;;;12.08;66.35;102742.78;2062725;28;45369;-66
2022/05/09 04:48:09;;;;;;;12.07;3.67;;;;;;;12.31;64.30;102750.84;2063412;28;44295;-66
2022/05/09 04:49:13;;;;;;;13.52;4.35;;;;;;;12.22;65.68;102746.38;2063445;28;43916;-66
2022/05/09 04:50:15;;;;;;;9.98;3.78;;;;;;;12.55;63.30;102744.50;2063759;28;45102;-66
2022/05/09 04:51:17;;;;;;;10.45;3.72;;;;;;;12.74;62.65;102748.06;2063694;28;43361;-66
2022/05/09 04:52:19;;;;;;;9.05;4.05;;;;;;;12.39;62.31;102753.50;2063677;28;45186;-66
2022/05/09 04:53:20;;;;;;;11.65;3.42;;;;;;;12.49;63.63;102752.59;2067221;28;43424;-66
2022/05/09 04:54:22;;;;;;;11.52;4.13;;;;;;;12.80;62.83;102750.72;2071196;28;42812;-66
2022/05/09 04:55:24;;;;;;;8.73;3.17;;;;;;;12.91;59.95;102748.00;2070630;28;44507;-66
2022/05/09 04:56:26;;;;;;;10.88;4.28;;;;;;;13.07;59.34;102753.31;2072367;28;20147;-67
2022/05/09 04:57:33;;;;;;;11.07;3.55;;;;;;;13.55;60.98;102745.94;2072338;28;20047;-66
2022/05/09 04:58:35;;;;;;;11.77;3.58;;;;;;;13.39;59.90;102752.28;2070864;28;45407;-66
2022/05/09 04:59:36;;;;;;;10.50;3.78;;;;;;;13.93;58.28;102751.03;2071057;28;42954;-66
2022/05/09 05:00:38;;;;;;;9.98;3.25;;;;;;;13.91;58.28;102743.88;2071421;28;45970;-66
2022/05/09 05:01:41;;;;;;;9.63;3.55;;;;;;;13.26;57.25;102746.97;2071619;28;41494;-67
2022/05/09 05:02:45;;;;;;;13.02;3.30;;;;;;;13.17;59.41;102745.22;2071452;28;44199;-67
2022/05/09 05:03:47;;;;;;;6.68;2.83;;;;;;;13.68;57.49;102753.00;2071515;28;46052;-64
2022/05/09 05:04:49;;;;;;;10.60;3.33;;;;;;;14.28;56.13;102743.56;2071552;28;45013;-65
2022/05/09 05:05:53;;;;;;;14.48;3.05;;;;;;;14.39;54.36;102746.16;2071823;28;33113;-65